Time;durP1;ratioP1;P1;durP2;ratioP2;P2;SDS_P1;SDS_P2;PMS_P1;PMS_P2;Temp;Humidity;BMP_temperature;BMP_pressure;BME280_temperature;BME280_humidity;BME280_pressure;Samples;Min_cycle;Max_cycle;Signal;HPM_P1;HPM_P2
2022/05/29 00:02:23;;;;;;;7.40;2.58;;;;;;;7.87;73.81;99379.34;5009042;28;20506;-55
2022/05/29 00:04:49;;;;;;;9.18;2.60;;;;;;;7.57;74.88;99382.72;5006881;28;20084;-55
2022/05/29 00:07:16;;;;;;;8.68;3.22;;;;;;;7.55;75.32;99379.44;5008477;28;20109;-53
2022/05/29 00:09:43;;;;;;;10.82;2.50;;;;;;;7.57;76.34;99374.69;5007985;28;20053;-55
2022/05/29 00:12:09;;;;;;;12.10;2.50;;;;;;;7.85;75.33;99380.59;5008508;28;20030;-54
2022/05/29 00:14:35;;;;;;;11.35;3.00;;;;;;;7.74;74.66;99372.28;5008095;28;20026;-55
2022/05/29 00:17:01;;;;;;;11.73;2.92;;;;;;;7.97;74.90;99378.84;5006207;28;20137;-54
2022/05/29 00:19:26;;;;;;;10.02;2.65;;;;;;;7.86;74.45;99372.38;5003628;28;20056;-55
2022/05/29 00:21:52;;;;;;;7.13;2.30;;;;;;;8.07;75.46;99378.31;5006134;28;20069;-55
2022/05/29 00:24:17;;;;;;;9.23;1.98;;;;;;;7.93;74.50;99381.13;5009430;28;20037;-54
2022/05/29 00:26:43;;;;;;;8.10;2.63;;;;;;;7.65;74.97;99370.13;5007998;28;20536;-55
2022/05/29 00:29:08;;;;;;;8.82;2.47;;;;;;;7.42;76.58;99371.56;5007182;28;20599;-55
2022/05/29 00:31:35;;;;;;;14.00;2.50;;;;;;;7.43;77.94;99369.69;5006961;28;20033;-55
2022/05/29 00:34:00;;;;;;;10.32;2.40;;;;;;;7.24;77.92;99369.66;5007772;28;20041;-55
2022/05/29 00:36:26;;;;;;;11.88;2.67;;;;;;;7.43;77.38;99377.69;5009112;28;20372;-54
2022/05/29 00:38:51;;;;;;;9.27;2.47;;;;;;;7.21;77.30;99369.25;4980350;28;20042;-55
2022/05/29 00:41:26;;;;;;;11.82;2.85;;;;;;;7.20;76.96;99373.78;5008711;28;20107;-55
2022/05/29 00:44:19;;;;;;;12.05;2.88;;;;;;;7.09;78.31;99371.81;5008544;28;20138;-54
2022/05/29 00:46:55;;;;;;;11.32;3.00;;;;;;;7.23;78.00;99373.34;5002551;28;20041;-55
2022/05/29 00:49:31;;;;;;;14.15;2.88;;;;;;;7.43;77.41;99367.84;5008122;28;20042;-58
2022/05/29 00:52:08;;;;;;;17.02;3.33;;;;;;;7.06;77.69;99367.75;4990948;28;20121;-53
2022/05/29 00:54:37;;;;;;;10.57;2.75;;;;;;;7.05;77.89;99360.75;5012726;28;20104;-54
2022/05/29 00:57:03;;;;;;;12.18;2.83;;;;;;;7.11;78.03;99364.41;5005817;28;20030;-56
2022/05/29 00:59:29;;;;;;;8.90;2.50;;;;;;;7.02;78.45;99366.53;4990143;28;20200;-55
2022/05/29 01:01:57;;;;;;;9.60;3.00;;;;;;;7.35;79.17;99360.94;5007588;28;20026;-55
2022/05/29 01:04:26;;;;;;;10.27;2.88;;;;;;;7.40;77.77;99354.97;4990840;28;20034;-55
2022/05/29 01:06:52;;;;;;;11.95;2.90;;;;;;;7.49;76.41;99356.31;5010930;28;20088;-55
2022/05/29 01:09:17;;;;;;;9.68;2.85;;;;;;;7.47;76.88;99347.72;4989662;28;20026;-56
2022/05/29 01:12:10;;;;;;;9.32;2.50;;;;;;;7.43;76.99;99351.84;4990517;28;20507;-56
2022/05/29 01:15:09;;;;;;;11.55;3.05;;;;;;;7.55;76.47;99351.94;5007833;28;20029;-54
2022/05/29 01:18:07;;;;;;;13.18;2.67;;;;;;;7.54;76.43;99348.47;4991840;28;20026;-58
2022/05/29 01:21:00;;;;;;;9.95;2.92;;;;;;;7.55;76.16;99349.28;5002218;28;20034;-55
2022/05/29 01:23:32;;;;;;;9.85;2.70;;;;;;;7.57;76.54;99348.03;4952730;28;20034;-57
2022/05/29 01:26:04;;;;;;;6.65;2.85;;;;;;;7.53;76.48;99341.50;4985309;28;20044;-55
2022/05/29 01:28:39;;;;;;;9.68;2.70;;;;;;;7.64;77.35;99347.13;5002603;28;20678;-55
2022/05/29 01:31:33;;;;;;;7.78;2.42;;;;;;;7.55;75.82;99342.09;5006130;28;20034;-56
2022/05/29 01:34:38;;;;;;;6.35;2.25;;;;;;;7.38;76.68;99338.34;4982588;28;20084;-55
2022/05/29 01:37:18;;;;;;;12.02;2.63;;;;;;;7.40;78.05;99336.28;5007398;28;20116;-54
2022/05/29 01:40:30;;;;;;;9.15;3.25;;;;;;;7.28;77.19;99335.38;4990414;28;20089;-55
2022/05/29 01:43:31;;;;;;;9.63;3.00;;;;;;;7.15;77.98;99351.47;4995639;28;20180;-57
2022/05/29 01:46:15;;;;;;;8.15;2.70;;;;;;;7.34;79.61;99340.66;4947262;28;20035;-57
2022/05/29 01:49:14;;;;;;;11.15;2.78;;;;;;;7.23;78.07;99343.22;4973652;28;20033;-55
2022/05/29 01:51:54;;;;;;;8.43;3.22;;;;;;;7.17;78.99;99341.41;5002869;28;20096;-54
2022/05/29 01:54:41;;;;;;;8.07;2.40;;;;;;;6.99;78.46;99332.31;5006422;28;20058;-53
2022/05/29 01:57:22;;;;;;;9.30;2.58;;;;;;;7.01;79.08;99332.09;4986041;28;20445;-54
2022/05/29 02:00:06;;;;;;;6.90;2.67;;;;;;;6.88;79.30;99333.00;5003748;28;20036;-55
2022/05/29 02:02:35;;;;;;;9.07;2.30;;;;;;;6.92;80.77;99334.22;5000895;28;20323;-56
2022/05/29 02:05:02;;;;;;;11.50;2.83;;;;;;;6.86;79.93;99332.41;4988039;28;20455;-55
2022/05/29 02:10:31;;;;;;;10.73;2.75;;;;;;;6.83;80.20;99330.19;4985748;28;20095;-55
2022/05/29 02:13:10;;;;;;;13.52;3.00;;;;;;;6.70;80.17;99326.56;4994769;28;20083;-54
2022/05/29 02:15:43;;;;;;;10.48;2.53;;;;;;;6.67;81.31;99320.88;5004983;28;20029;-55
2022/05/29 02:18:34;;;;;;;13.48;3.10;;;;;;;6.73;80.99;99321.84;4987311;28;20088;-54
2022/05/29 02:21:03;;;;;;;14.30;2.60;;;;;;;6.57;81.13;99325.84;4984821;28;20476;-56
2022/05/29 02:23:36;;;;;;;13.32;2.65;;;;;;;6.58;81.64;99322.13;4988829;28;20124;-55
2022/05/29 02:26:03;;;;;;;9.50;2.83;;;;;;;6.68;81.30;99317.16;5005459;28;20125;-54
2022/05/29 02:28:40;;;;;;;11.02;3.08;;;;;;;6.63;81.57;99309.81;4969019;28;20101;-55
2022/05/29 02:31:25;;;;;;;11.95;3.13;;;;;;;6.66;80.82;99311.22;4972934;28;20389;-55
2022/05/29 02:33:56;;;;;;;9.50;2.75;;;;;;;6.59;82.00;99307.78;4998395;28;20025;-55
2022/05/29 02:36:35;;;;;;;10.63;3.00;;;;;;;6.53;81.87;99308.66;5007531;28;20030;-53
2022/05/29 02:39:34;;;;;;;10.25;3.00;;;;;;;6.57;82.22;99305.34;4988462;28;21366;-55
2022/05/29 02:42:09;;;;;;;7.43;2.65;;;;;;;6.46;81.90;99311.34;4986122;28;20460;-55
2022/05/29 02:44:48;;;;;;;6.28;2.58;;;;;;;6.37;82.64;99304.66;5004594;28;20022;-55
2022/05/29 02:47:31;;;;;;;7.45;2.63;;;;;;;6.34;82.85;99302.41;4999204;28;20045;-55
2022/05/29 02:50:29;;;;;;;10.13;3.17;;;;;;;6.37;83.06;99302.81;5000798;28;20757;-54
2022/05/29 02:52:56;;;;;;;10.90;2.95;;;;;;;6.42;84.87;99294.19;4951436;28;20130;-54
2022/05/29 02:55:22;;;;;;;10.10;2.80;;;;;;;6.36;82.67;99297.69;4984764;28;20424;-55
2022/05/29 02:57:49;;;;;;;12.35;3.38;;;;;;;6.32;83.44;99296.50;4983238;28;20654;-55
2022/05/29 03:00:15;;;;;;;12.38;3.65;;;;;;;6.42;83.88;99288.84;5003720;28;20088;-55
2022/05/29 03:03:03;;;;;;;6.68;3.13;;;;;;;6.51;83.47;99290.22;4982373;28;20030;-55
2022/05/29 03:05:31;;;;;;;8.77;2.78;;;;;;;6.38;83.17;99295.63;4988775;28;20034;-54
2022/05/29 03:08:07;;;;;;;8.50;2.92;;;;;;;6.36;83.31;99287.03;5004816;28;20030;-53
2022/05/29 03:10:35;;;;;;;11.40;3.28;;;;;;;6.43;83.55;99298.47;4983573;28;20033;-55
2022/05/29 03:13:09;;;;;;;7.00;2.90;;;;;;;6.20;82.99;99286.50;4971136;28;20053;-53
2022/05/29 03:15:54;;;;;;;5.22;2.30;;;;;;;6.32;84.50;99289.31;4972189;28;20263;-54
2022/05/29 03:18:21;;;;;;;7.70;2.97;;;;;;;6.32;84.05;99296.50;5001972;28;20037;-55
2022/05/29 03:20:59;;;;;;;9.45;3.47;;;;;;;6.21;84.41;99296.09;5004140;28;20030;-53
2022/05/29 03:23:40;;;;;;;7.68;2.75;;;;;;;6.12;84.89;99291.25;4985075;28;20033;-55
2022/05/29 03:26:10;;;;;;;10.07;3.13;;;;;;;6.09;84.65;99286.34;4985039;28;20029;-55
2022/05/29 03:28:39;;;;;;;11.30;3.10;;;;;;;6.16;84.83;99282.63;4988024;28;20022;-53
2022/05/29 03:31:07;;;;;;;9.50;3.22;;;;;;;6.15;85.27;99288.19;4985128;28;20246;-54
2022/05/29 03:33:33;;;;;;;9.77;2.60;;;;;;;6.36;86.19;99287.84;4991759;28;20030;-54
2022/05/29 03:35:58;;;;;;;15.98;3.33;;;;;;;6.35;84.95;99288.06;5009198;28;20757;-55
2022/05/29 03:38:24;;;;;;;10.80;3.63;;;;;;;6.54;83.66;99283.66;5008573;28;20378;-57
2022/05/29 03:40:49;;;;;;;7.38;2.92;;;;;;;6.73;83.19;99281.88;5009900;28;20037;-53
2022/05/29 03:43:15;;;;;;;9.70;3.03;;;;;;;7.39;80.61;99277.84;4975342;28;20048;-56
2022/05/29 03:45:40;;;;;;;9.20;3.03;;;;;;;7.55;78.86;99280.75;5007734;28;20022;-55
2022/05/29 03:48:06;;;;;;;9.95;2.70;;;;;;;8.10;77.46;99276.44;5008595;28;20083;-55
2022/05/29 03:50:34;;;;;;;11.43;2.78;;;;;;;8.53;75.00;99272.78;5007115;28;20045;-56
2022/05/29 03:53:00;;;;;;;7.10;2.63;;;;;;;9.05;74.34;99267.66;5007763;28;20033;-55
2022/05/29 03:55:26;;;;;;;10.65;2.83;;;;;;;9.71;71.15;99271.84;5009418;28;20096;-56
2022/05/29 03:57:51;;;;;;;6.13;2.40;;;;;;;10.35;68.17;99271.75;4990181;28;20033;-55
2022/05/29 04:00:17;;;;;;;10.18;2.80;;;;;;;10.36;67.12;99261.88;5008913;28;20064;-54
2022/05/29 04:02:44;;;;;;;10.50;3.50;;;;;;;10.88;65.95;99268.91;4990359;28;20034;-55
2022/05/29 04:05:15;;;;;;;8.05;2.75;;;;;;;10.90;65.43;99272.19;5009873;28;20388;-54
2022/05/29 04:13:09;;;;;;;5.88;2.65;;;;;;;11.53;65.23;99265.63;4994133;28;20104;-55
2022/05/29 04:15:36;;;;;;;10.75;2.80;;;;;;;12.33;61.16;99270.63;4970701;28;20022;-54
2022/05/29 04:18:03;;;;;;;10.40;3.03;;;;;;;12.14;60.43;99264.78;5009874;28;20288;-55
2022/05/29 04:20:29;;;;;;;11.70;3.10;;;;;;;13.29;57.07;99267.19;5008100;28;20083;-55
2022/05/29 04:22:54;;;;;;;11.40;3.15;;;;;;;13.10;57.53;99259.50;5007552;28;20029;-54
2022/05/29 04:25:20;;;;;;;8.77;2.78;;;;;;;13.28;57.11;99263.69;5008672;28;20113;-54
2022/05/29 04:27:45;;;;;;;10.82;2.80;;;;;;;13.58;56.05;99260.38;5008617;28;20030;-56
2022/05/29 04:30:12;;;;;;;14.43;3.40;;;;;;;13.22;57.39;99264.69;5008168;28;20026;-56
2022/05/29 04:35:22;;;;;;;8.38;3.00;;;;;;;14.08;54.88;99265.41;5009378;28;20388;-55
2022/05/29 04:37:49;;;;;;;7.10;3.05;;;;;;;13.31;56.52;99262.38;5008188;28;20030;-55
2022/05/29 04:40:14;;;;;;;6.65;3.05;;;;;;;13.37;58.53;99264.00;5007974;28;20076;-54
2022/05/29 04:42:40;;;;;;;13.32;3.88;;;;;;;14.09;54.41;99261.66;5006729;28;20050;-55
2022/05/29 04:45:06;;;;;;;10.27;4.03;;;;;;;14.16;55.19;99267.63;5007383;28;20524;-54
2022/05/29 04:47:32;;;;;;;10.60;4.32;;;;;;;13.93;56.37;99264.31;5005817;28;20038;-52
2022/05/29 04:49:57;;;;;;;8.70;4.55;;;;;;;14.21;55.18;99270.34;5008738;28;20521;-52
2022/05/29 04:52:23;;;;;;;10.48;4.28;;;;;;;15.41;51.57;99263.66;5005439;28;20520;-54
2022/05/29 04:54:49;;;;;;;10.88;5.65;;;;;;;15.15;52.71;99262.91;5008419;28;20041;-55
2022/05/29 04:57:18;;;;;;;9.95;5.13;;;;;;;15.69;49.59;99262.25;5008541;28;20121;-54
2022/05/29 04:59:44;;;;;;;9.77;4.55;;;;;;;15.69;50.94;99256.84;5007679;28;20511;-55
2022/05/29 05:02:09;;;;;;;11.57;4.47;;;;;;;17.25;47.45;99253.75;5008002;28;20046;-55
2022/05/29 05:04:38;;;;;;;10.60;5.13;;;;;;;16.46;49.10;99255.69;5008095;28;20029;-55
2022/05/29 05:07:03;;;;;;;12.07;5.15;;;;;;;17.56;46.76;99248.00;4989322;28;20044;-55
2022/05/29 05:09:30;;;;;;;12.55;5.30;;;;;;;18.21;44.72;99245.59;4990054;28;20030;-56
2022/05/29 05:11:56;;;;;;;12.70;5.63;;;;;;;18.73;43.36;99254.59;4973516;28;20037;-55
2022/05/29 05:14:23;;;;;;;12.05;4.63;;;;;;;18.20;44.12;99256.75;5007940;28;20026;-53
2022/05/29 05:16:49;;;;;;;12.38;4.22;;;;;;;17.79;46.08;99257.22;5006292;28;20435;-55
2022/05/29 05:19:14;;;;;;;11.15;4.78;;;;;;;17.85;45.81;99248.78;5006892;28;20215;-55
2022/05/29 05:21:40;;;;;;;8.85;4.53;;;;;;;18.81;43.43;99255.88;4988918;28;20048;-54
2022/05/29 05:24:06;;;;;;;11.57;4.60;;;;;;;19.60;42.62;99253.13;5008681;28;20041;-54
2022/05/29 05:26:32;;;;;;;9.38;4.20;;;;;;;18.25;44.04;99248.53;5007467;28;20244;-56
2022/05/29 05:28:58;;;;;;;8.48;3.83;;;;;;;18.69;43.90;99250.06;5006765;28;20053;-55
2022/05/29 05:31:24;;;;;;;8.75;3.63;;;;;;;17.94;44.89;99242.72;5008066;28;20034;-55
2022/05/29 05:33:50;;;;;;;11.40;4.45;;;;;;;16.89;47.52;99251.34;5007088;28;20030;-55
2022/05/29 05:36:16;;;;;;;8.43;4.53;;;;;;;15.35;50.43;99245.03;5006116;28;20464;-55
2022/05/29 05:38:41;;;;;;;12.38;4.95;;;;;;;14.72;53.87;99243.47;5006974;28;20109;-55
2022/05/29 05:41:10;;;;;;;13.52;5.90;;;;;;;15.82;50.61;99244.66;5006636;28;20461;-54
2022/05/29 05:43:36;;;;;;;13.00;5.43;;;;;;;15.54;51.74;99246.88;5004758;28;20030;-53
2022/05/29 05:46:05;;;;;;;9.88;5.65;;;;;;;19.21;44.00;99241.91;5006699;28;20148;-54
2022/05/29 05:48:31;;;;;;;13.30;5.22;;;;;;;19.14;43.92;99248.50;5003503;28;20030;-55
2022/05/29 05:50:57;;;;;;;10.45;5.40;;;;;;;18.81;44.35;99245.00;5007515;28;20025;-55
2022/05/29 05:53:23;;;;;;;17.45;8.38;;;;;;;18.47;44.12;99245.22;5004645;28;20029;-53
2022/05/29 05:55:49;;;;;;;10.93;5.43;;;;;;;18.99;43.74;99240.63;5005125;28;20240;-54
2022/05/29 05:58:17;;;;;;;10.85;6.18;;;;;;;18.30;43.81;99246.56;5006867;28;20030;-53
2022/05/29 06:00:46;;;;;;;14.98;6.05;;;;;;;16.51;47.64;99234.81;4999201;28;20041;-54
2022/05/29 06:03:12;;;;;;;15.77;6.38;;;;;;;18.70;44.65;99236.19;5004832;28;20041;-56
2022/05/29 06:05:37;;;;;;;10.38;6.22;;;;;;;19.01;43.61;99243.88;4998896;28;20026;-55
2022/05/29 06:08:04;;;;;;;8.88;5.63;;;;;;;17.03;46.65;99236.06;4989090;28;20036;-55
2022/05/29 06:10:30;;;;;;;11.73;5.70;;;;;;;16.87;47.40;99239.19;5004622;28;20537;-55
2022/05/29 06:13:00;;;;;;;11.82;5.68;;;;;;;18.41;43.54;99235.56;5004947;28;20044;-56
2022/05/29 06:15:27;;;;;;;11.80;5.80;;;;;;;19.79;41.70;99233.19;4980665;28;20022;-56
2022/05/29 06:17:53;;;;;;;11.45;5.63;;;;;;;20.40;40.91;99237.31;4987176;28;20145;-54
2022/05/29 06:20:18;;;;;;;9.93;5.43;;;;;;;20.24;40.50;99228.72;5002237;28;20465;-54
2022/05/29 06:22:44;;;;;;;14.80;5.97;;;;;;;20.04;40.70;99237.31;5004159;28;20061;-53
2022/05/29 06:25:10;;;;;;;10.68;4.95;;;;;;;19.39;42.32;99238.28;5006281;28;20054;-54
2022/05/29 06:27:37;;;;;;;10.07;4.72;;;;;;;20.77;39.74;99226.44;5004231;28;20055;-55
2022/05/29 06:30:04;;;;;;;12.93;5.43;;;;;;;21.00;38.75;99240.84;5005775;28;20118;-55
2022/05/29 06:32:29;;;;;;;12.43;4.90;;;;;;;18.31;44.13;99237.31;4988921;28;20484;-55
2022/05/29 06:34:56;;;;;;;11.98;5.00;;;;;;;18.89;43.11;99243.53;5007112;28;20359;-55
2022/05/29 06:37:21;;;;;;;10.48;5.00;;;;;;;18.48;44.76;99236.00;5005185;28;20025;-54
2022/05/29 06:39:47;;;;;;;11.43;4.75;;;;;;;18.58;42.61;99235.84;4999102;28;20032;-55
2022/05/29 06:42:13;;;;;;;9.88;4.60;;;;;;;15.10;50.73;99233.19;5003203;28;20132;-55
2022/05/29 06:44:41;;;;;;;15.18;4.80;;;;;;;13.51;55.61;99229.38;5005667;28;20133;-54
2022/05/29 06:47:07;;;;;;;11.68;4.15;;;;;;;13.01;57.69;99227.97;4976484;28;20034;-53
2022/05/29 06:49:34;;;;;;;11.77;4.38;;;;;;;13.80;55.84;99222.50;5000602;28;20415;-54
2022/05/29 06:51:59;;;;;;;10.13;4.28;;;;;;;13.43;57.88;99225.28;4971622;28;20035;-55
2022/05/29 06:54:25;;;;;;;9.63;4.07;;;;;;;13.47;56.89;99223.69;5005096;28;20034;-55
2022/05/29 06:56:53;;;;;;;11.30;4.60;;;;;;;11.09;63.21;99221.78;5003895;28;20038;-54
2022/05/29 06:59:20;;;;;;;10.82;4.45;;;;;;;12.03;62.77;99218.19;5006399;28;20022;-54
2022/05/29 07:07:14;;;;;;;9.40;3.75;;;;;;;16.71;46.14;99222.25;4990131;28;20044;-55
2022/05/29 07:09:40;;;;;;;8.88;3.40;;;;;;;19.38;42.58;99229.34;5009862;28;20492;-55
2022/05/29 07:12:07;;;;;;;10.27;3.30;;;;;;;19.13;40.91;99225.19;5005042;28;20033;-55
2022/05/29 07:14:35;;;;;;;7.53;3.05;;;;;;;20.48;38.33;99231.16;4986667;28;20392;-54
2022/05/29 07:17:01;;;;;;;7.22;2.80;;;;;;;19.01;39.83;99229.47;4982686;28;20187;-54
2022/05/29 07:19:28;;;;;;;4.85;2.40;;;;;;;16.85;42.08;99230.53;5006090;28;20034;-55
2022/05/29 07:21:56;;;;;;;14.82;3.00;;;;;;;14.33;48.97;99221.56;5004744;28;20391;-54
2022/05/29 07:24:22;;;;;;;7.07;3.05;;;;;;;14.65;48.20;99216.78;5005298;28;20101;-53
2022/05/29 07:26:47;;;;;;;6.90;2.78;;;;;;;16.78;44.18;99220.06;4985332;28;20116;-54
2022/05/29 07:29:17;;;;;;;6.32;3.10;;;;;;;18.89;40.36;99219.09;5005039;28;20150;-55
2022/05/29 07:31:43;;;;;;;8.07;3.20;;;;;;;19.70;39.45;99211.38;5000565;28;20021;-54
2022/05/29 07:34:08;;;;;;;7.53;2.55;;;;;;;18.32;40.42;99211.81;4980335;28;20096;-54
2022/05/29 07:36:34;;;;;;;8.50;2.70;;;;;;;17.51;42.37;99212.84;5004457;28;20033;-54
2022/05/29 07:39:00;;;;;;;6.38;2.33;;;;;;;20.32;38.22;99212.75;5004489;28;20107;-55
2022/05/29 07:44:11;;;;;;;6.72;2.10;;;;;;;18.90;39.01;99218.78;5006107;28;20032;-54
2022/05/29 07:46:37;;;;;;;5.97;2.25;;;;;;;18.01;39.69;99216.03;5004200;28;20174;-55
2022/05/29 07:49:03;;;;;;;5.00;1.90;;;;;;;17.41;40.00;99217.25;5004859;28;20133;-54
2022/05/29 07:51:29;;;;;;;7.40;2.20;;;;;;;17.09;41.38;99212.44;5004556;28;20038;-54
2022/05/29 07:53:57;;;;;;;4.80;2.05;;;;;;;19.94;37.01;99210.31;5003804;28;20069;-54
2022/05/29 07:56:24;;;;;;;5.00;1.88;;;;;;;20.61;33.65;99206.94;5006150;28;20034;-54
2022/05/29 07:58:49;;;;;;;9.55;1.98;;;;;;;18.18;36.59;99216.34;5003160;28;20025;-55
2022/05/29 08:01:15;;;;;;;6.82;1.70;;;;;;;18.71;37.29;99213.38;5000684;28;20686;-53
2022/05/29 08:03:40;;;;;;;6.05;1.75;;;;;;;17.38;39.54;99212.44;4987878;28;20069;-54
2022/05/29 08:06:06;;;;;;;7.45;2.10;;;;;;;16.24;42.07;99212.81;5001380;28;20036;-55
2022/05/29 08:08:32;;;;;;;5.47;1.80;;;;;;;18.30;38.92;99207.78;5002941;28;20029;-56
2022/05/29 08:10:58;;;;;;;5.05;1.98;;;;;;;21.04;35.43;99203.66;4981052;28;20034;-54
2022/05/29 08:13:24;;;;;;;5.78;1.90;;;;;;;17.45;39.24;99195.84;5004640;28;20034;-54
2022/05/29 08:15:50;;;;;;;6.68;2.22;;;;;;;16.79;40.48;99205.41;5004644;28;20088;-54
2022/05/29 08:18:15;;;;;;;5.35;1.98;;;;;;;15.11;43.38;99215.94;5006534;28;20492;-54
2022/05/29 08:20:41;;;;;;;7.38;2.65;;;;;;;14.62;45.94;99211.09;4991094;28;20026;-54
2022/05/29 08:23:07;;;;;;;4.82;2.50;;;;;;;14.27;46.62;99201.84;5008262;28;20031;-54
2022/05/29 08:31:00;;;;;;;10.25;2.40;;;;;;;13.21;50.47;99195.00;5006517;28;20633;-52
2022/05/29 08:33:34;;;;;;;6.40;2.50;;;;;;;13.43;51.39;99200.22;5008258;28;20022;-55
2022/05/29 08:36:00;;;;;;;9.57;2.35;;;;;;;15.71;46.51;99200.66;5008256;28;20117;-54
2022/05/29 08:38:26;;;;;;;6.55;2.65;;;;;;;16.36;44.51;99203.28;5008379;28;20527;-55
2022/05/29 08:40:54;;;;;;;8.02;2.45;;;;;;;17.78;42.45;99199.50;5007747;28;20038;-51
2022/05/29 08:43:35;;;;;;;4.38;2.25;;;;;;;17.92;41.23;99196.09;4990554;28;20368;-52
2022/05/29 08:46:21;;;;;;;4.88;2.05;;;;;;;16.51;42.31;99196.94;5008071;28;20033;-53
2022/05/29 08:48:46;;;;;;;9.35;2.30;;;;;;;17.68;42.02;99202.34;5005916;28;20037;-53
2022/05/29 08:51:28;;;;;;;6.70;2.03;;;;;;;17.00;41.51;99193.31;4971970;28;20032;-52
2022/05/29 08:54:13;;;;;;;5.75;2.10;;;;;;;17.64;41.03;99201.28;5003099;28;20033;-52
2022/05/29 08:56:54;;;;;;;8.60;2.67;;;;;;;18.17;39.21;99195.75;5005495;28;20026;-54
2022/05/29 08:59:49;;;;;;;7.38;2.70;;;;;;;17.53;40.39;99197.09;5087710;27;20405;-53
2022/05/29 09:02:57;;;;;;;9.02;3.20;;;;;;;17.84;40.14;99190.22;5081253;28;20039;-53
2022/05/29 09:05:35;;;;;;;5.72;3.00;;;;;;;16.33;43.94;99189.53;5062245;28;20040;-52
2022/05/29 09:08:08;;;;;;;9.50;3.05;;;;;;;15.60;46.19;99193.66;5060624;28;20056;-54
2022/05/29 09:10:38;;;;;;;7.18;2.67;;;;;;;16.80;43.78;99188.91;5074033;28;20456;-54
2022/05/29 09:13:05;;;;;;;8.80;3.40;;;;;;;15.72;45.90;99194.19;5063502;28;20025;-53
2022/05/29 09:15:39;;;;;;;5.50;2.55;;;;;;;15.32;46.86;99182.41;5065269;28;20505;-53
2022/05/29 09:18:18;;;;;;;5.32;2.38;;;;;;;16.76;44.69;99192.44;5080380;28;20119;-51
2022/05/29 09:20:51;;;;;;;5.67;2.33;;;;;;;17.44;43.77;99192.31;5078509;28;20025;-51
2022/05/29 09:23:25;;;;;;;5.03;2.60;;;;;;;16.98;43.16;99187.38;5080786;28;20295;-53
2022/05/29 09:25:55;;;;;;;7.15;3.15;;;;;;;17.18;41.75;99182.84;5080163;28;20028;-54
2022/05/29 09:28:38;;;;;;;7.60;2.70;;;;;;;17.52;41.03;99188.16;5076193;28;20108;-51
2022/05/29 09:31:15;;;;;;;10.65;3.65;;;;;;;18.28;40.33;99191.78;5081724;28;20515;-53
2022/05/29 09:33:40;;;;;;;8.25;3.58;;;;;;;18.03;40.34;99190.25;5070329;28;20032;-53
2022/05/29 09:36:24;;;;;;;5.32;2.30;;;;;;;18.89;38.64;99183.78;5080807;28;20634;-53
2022/05/29 09:38:53;;;;;;;4.20;2.38;;;;;;;18.66;38.47;99189.03;5073124;28;20683;-54
2022/05/29 09:41:29;;;;;;;8.07;3.25;;;;;;;19.25;38.15;99183.16;5076022;28;20070;-54
2022/05/29 09:44:12;;;;;;;6.43;3.17;;;;;;;17.71;39.89;99187.41;5080879;28;20032;-54
2022/05/29 09:46:42;;;;;;;7.25;3.08;;;;;;;17.84;40.04;99179.38;5071390;28;20024;-52
2022/05/29 09:52:26;;;;;;;5.20;2.20;;;;;;;15.41;44.62;99177.25;5081637;28;20096;-53
2022/05/29 09:55:15;;;;;;;6.28;2.70;;;;;;;15.12;46.10;99182.44;5080503;28;20082;-57
2022/05/29 09:57:45;;;;;;;5.85;2.60;;;;;;;15.67;45.86;99186.03;5070047;28;20075;-54
2022/05/29 10:00:15;;;;;;;7.03;2.70;;;;;;;15.60;46.22;99182.03;5080959;28;20024;-53
2022/05/29 10:02:42;;;;;;;4.60;2.60;;;;;;;16.15;46.76;99189.09;5079472;28;20024;-54
2022/05/29 10:05:28;;;;;;;4.57;2.60;;;;;;;15.73;46.35;99181.47;5096063;28;20591;-54
2022/05/29 10:07:56;;;;;;;5.38;2.17;;;;;;;15.36;46.06;99176.47;5080098;28;20060;-53
2022/05/29 10:10:25;;;;;;;5.15;2.25;;;;;;;15.27;46.23;99174.31;5067591;28;20487;-54
2022/05/29 10:12:51;;;;;;;4.85;2.40;;;;;;;16.02;45.11;99175.38;5067679;28;20031;-53
2022/05/29 10:15:26;;;;;;;5.05;2.40;;;;;;;16.32;44.08;99171.66;5062856;28;20028;-53
2022/05/29 10:18:08;;;;;;;4.65;2.45;;;;;;;16.05;45.06;99166.69;5066826;28;20024;-54
2022/05/29 10:20:38;;;;;;;4.60;2.20;;;;;;;16.59;44.06;99166.56;5065725;28;20408;-53
2022/05/29 10:23:09;;;;;;;5.72;2.40;;;;;;;16.07;44.42;99168.03;5066092;28;20032;-54
2022/05/29 10:25:41;;;;;;;5.07;2.47;;;;;;;16.87;42.68;99158.78;5082717;28;20029;-53
2022/05/29 10:28:12;;;;;;;5.65;2.30;;;;;;;16.36;44.83;99159.19;5067290;28;20024;-53
2022/05/29 10:31:01;;;;;;;8.95;2.30;;;;;;;16.55;45.46;99162.84;5059804;28;20012;-54
2022/05/29 10:33:31;;;;;;;6.38;2.50;;;;;;;17.19;43.57;99157.38;5062664;28;20064;-54
2022/05/29 10:36:06;;;;;;;;;;;;;;;16.96;44.74;99154.38;5062713;28;20519;-54
2022/05/29 10:38:31;;;;;;;4.43;2.35;;;;;;;16.85;43.53;99152.88;5060206;28;19916;-51
2022/05/29 10:40:58;;;;;;;6.35;2.72;;;;;;;16.75;42.71;99153.75;5067152;28;20025;-53
2022/05/29 10:43:44;;;;;;;13.57;6.30;;;;;;;15.34;45.20;99152.41;5064422;28;20547;-52
2022/05/29 10:46:15;;;;;;;3.92;2.65;;;;;;;14.86;45.82;99163.59;5066319;28;20036;-53
2022/05/29 10:48:48;;;;;;;6.35;2.75;;;;;;;16.57;43.46;99146.31;5063253;28;20033;-54
2022/05/29 10:51:21;;;;;;;6.53;3.10;;;;;;;16.89;41.31;99147.69;5066327;28;20025;-54
2022/05/29 10:54:14;;;;;;;6.82;3.05;;;;;;;16.77;42.65;99148.84;5065476;28;20021;-50
2022/05/29 10:56:58;;;;;;;6.78;2.80;;;;;;;16.48;43.76;99143.41;5036923;28;20025;-53
2022/05/29 11:00:05;;;;;;;5.72;2.00;;;;;;;15.83;46.46;99138.19;5062459;28;20392;-52
2022/05/29 11:03:23;;;;;;;4.10;2.22;;;;;;;15.40;47.68;99129.72;5061322;28;20091;-54
2022/05/29 11:06:13;;;;;;;6.15;2.08;;;;;;;16.59;46.41;99138.72;5053835;28;20040;-53
2022/05/29 11:09:04;;;;;;;5.95;2.42;;;;;;;16.94;44.12;99134.88;5066339;28;20056;-53
2022/05/29 11:11:42;;;;;;;5.03;2.05;;;;;;;16.49;44.98;99128.00;5061266;28;20037;-54
2022/05/29 11:14:32;;;;;;;5.10;2.20;;;;;;;17.20;43.26;99127.31;5063440;28;20025;-54
2022/05/29 11:17:23;;;;;;;5.20;2.25;;;;;;;17.91;43.02;99129.41;5065214;28;20056;-54
2022/05/29 11:20:20;;;;;;;8.93;2.90;;;;;;;18.71;41.17;99121.06;5050070;28;20131;-53
2022/05/29 11:23:04;;;;;;;5.40;2.30;;;;;;;19.25;39.88;99117.94;5064040;28;20032;-54
2022/05/29 11:25:42;;;;;;;6.82;2.08;;;;;;;19.53;39.20;99118.72;5064252;28;20044;-54
2022/05/29 11:28:40;;;;;;;6.78;2.33;;;;;;;17.13;44.06;99110.59;5065482;28;20037;-52
2022/05/29 11:31:38;;;;;;;6.20;2.50;;;;;;;16.94;45.49;99109.72;5044420;28;20052;-53
2022/05/29 11:34:07;;;;;;;8.15;2.40;;;;;;;16.58;45.85;99110.06;5071676;28;20489;-53
2022/05/29 11:36:48;;;;;;;4.40;2.17;;;;;;;16.43;45.68;99099.38;5063013;28;20028;-53
2022/05/29 11:39:43;;;;;;;9.77;2.50;;;;;;;16.41;46.65;99105.06;5063171;28;20111;-54
2022/05/29 11:42:21;;;;;;;6.18;2.38;;;;;;;16.82;44.98;99099.28;5063379;28;20039;-54
2022/05/29 11:44:51;;;;;;;6.45;2.58;;;;;;;15.87;45.22;99089.78;5065700;28;20498;-54
2022/05/29 11:53:32;;;;;;;5.63;2.35;;;;;;;15.59;46.52;99067.78;5058311;28;20601;-53
2022/05/29 11:56:00;;;;;;;3.22;2.20;;;;;;;16.54;45.55;99069.22;5060050;28;20310;-53
2022/05/29 11:58:47;;;;;;;4.85;2.40;;;;;;;17.53;43.59;99069.75;5063592;28;20076;-54
2022/05/29 12:01:23;;;;;;;4.80;2.60;;;;;;;18.93;40.37;99063.41;5065660;28;20116;-54
2022/05/29 12:04:00;;;;;;;4.55;2.25;;;;;;;19.37;37.79;99053.81;5053773;28;20489;-53
2022/05/29 12:06:38;;;;;;;5.63;2.20;;;;;;;18.02;39.05;99061.19;5059384;28;20055;-53
2022/05/29 12:09:16;;;;;;;4.93;2.30;;;;;;;16.94;42.61;99052.88;5052104;28;20395;-53
2022/05/29 12:11:55;;;;;;;3.92;2.13;;;;;;;17.09;44.21;99063.53;5065609;28;20024;-54
2022/05/29 12:14:51;;;;;;;7.63;2.50;;;;;;;16.54;42.49;99052.19;5065673;28;20356;-52
2022/05/29 12:17:25;;;;;;;3.65;2.28;;;;;;;16.53;43.08;99054.09;5062470;28;20043;-52
2022/05/29 12:19:55;;;;;;;4.38;2.25;;;;;;;16.55;42.97;99049.22;5051083;28;20552;-52
2022/05/29 12:22:24;;;;;;;3.63;2.00;;;;;;;16.49;43.31;99047.63;5047584;28;20440;-52
2022/05/29 12:24:50;;;;;;;5.35;2.10;;;;;;;16.76;41.77;99040.88;5063091;28;20111;-53
2022/05/29 12:27:20;;;;;;;4.10;1.92;;;;;;;16.63;41.74;99046.97;5051606;28;20083;-53
2022/05/29 12:29:49;;;;;;;4.03;2.10;;;;;;;16.68;42.70;99038.81;5040989;28;20055;-54
2022/05/29 12:32:30;;;;;;;3.47;2.10;;;;;;;16.78;42.84;99036.00;5063328;28;20021;-53
2022/05/29 12:35:06;;;;;;;4.30;2.13;;;;;;;15.98;45.74;99036.47;5057708;28;20056;-52